createdAt,value
2022-12-02T00:00:22.525Z,38.80
2022-12-02T00:02:50.827Z,41.33
2022-12-02T00:05:30.371Z,43.80
2022-12-02T00:08:00.660Z,47.13
2022-12-02T00:10:30.007Z,45.40
2022-12-02T00:13:03.520Z,41.00
2022-12-02T00:15:37.610Z,42.13
2022-12-02T00:18:06.654Z,44.03
2022-12-02T00:20:34.824Z,42.10
2022-12-02T00:23:02.965Z,36.90
2022-12-02T00:25:31.127Z,31.10
2022-12-02T00:27:59.388Z,27.07
2022-12-02T00:30:27.574Z,33.40
2022-12-02T00:32:57.153Z,30.37
2022-12-02T00:35:25.610Z,29.37
2022-12-02T00:37:53.883Z,30.80
2022-12-02T00:40:22.056Z,29.50
2022-12-02T00:42:50.230Z,33.90
2022-12-02T00:45:36.459Z,31.20
2022-12-02T00:48:06.388Z,36.57
2022-12-02T00:50:34.531Z,37.87
2022-12-02T00:53:02.720Z,32.37
2022-12-02T00:55:30.863Z,39.60
2022-12-02T00:57:59.002Z,35.33
2022-12-02T01:00:27.138Z,38.07
2022-12-02T01:02:55.301Z,38.37
2022-12-02T01:05:24.792Z,41.00
2022-12-02T01:07:52.996Z,37.77
2022-12-02T01:10:21.254Z,38.73
2022-12-02T01:12:49.446Z,40.17
2022-12-02T01:15:17.703Z,39.83
2022-12-02T01:17:45.846Z,38.50
2022-12-02T01:20:14.746Z,39.17
2022-12-02T01:22:44.272Z,38.53
2022-12-02T01:25:12.413Z,41.50
2022-12-02T01:27:40.577Z,36.43
2022-12-02T01:30:09.365Z,33.97
2022-12-02T01:32:37.540Z,37.83
2022-12-02T01:35:05.998Z,37.90
2022-12-02T01:37:34.189Z,39.30
2022-12-02T01:40:03.722Z,37.70
2022-12-02T01:42:32.060Z,38.57
2022-12-02T01:45:00.308Z,37.27
2022-12-02T01:47:28.705Z,42.83
2022-12-02T01:49:57.167Z,38.10
2022-12-02T01:52:25.955Z,41.57
2022-12-02T01:54:54.429Z,40.47
2022-12-02T01:57:26.932Z,42.33
2022-12-02T01:59:55.148Z,43.17
2022-12-02T02:02:27.243Z,44.23
2022-12-02T02:04:56.079Z,38.60
2022-12-02T02:07:24.428Z,43.30
2022-12-02T02:09:52.900Z,46.23
2022-12-02T02:12:21.246Z,39.60
2022-12-02T02:14:51.283Z,45.00
2022-12-02T02:17:19.762Z,45.63
2022-12-02T02:19:48.019Z,42.40
2022-12-02T02:22:18.027Z,44.70
2022-12-02T02:24:47.673Z,45.07
2022-12-02T02:27:16.016Z,49.03
2022-12-02T02:29:44.277Z,47.83
2022-12-02T02:32:12.508Z,53.87
2022-12-02T02:34:40.789Z,56.37
2022-12-02T02:37:08.984Z,58.07
2022-12-02T02:39:37.302Z,50.90
2022-12-02T02:42:07.072Z,53.73
2022-12-02T02:44:35.388Z,52.47
2022-12-02T02:47:03.591Z,55.97
2022-12-02T02:49:31.990Z,57.63
2022-12-02T02:52:00.141Z,58.17
2022-12-02T02:54:28.355Z,60.13
2022-12-02T02:56:56.599Z,56.33
2022-12-02T02:59:26.220Z,59.77
2022-12-02T03:01:54.903Z,61.83
2022-12-02T03:04:24.263Z,56.03
2022-12-02T03:06:53.020Z,64.90
2022-12-02T03:09:22.949Z,61.57
2022-12-02T03:11:53.826Z,61.13
2022-12-02T03:14:22.226Z,69.63
2022-12-02T03:16:51.921Z,68.17
2022-12-02T03:19:20.481Z,61.60
2022-12-02T03:21:48.942Z,69.73
2022-12-02T03:24:17.446Z,66.40
2022-12-02T03:26:45.638Z,65.20
2022-12-02T03:29:15.344Z,64.60
2022-12-02T03:31:43.658Z,65.37
2022-12-02T03:34:13.691Z,62.20
2022-12-02T03:36:42.221Z,62.83
2022-12-02T03:39:11.209Z,59.63
2022-12-02T03:41:39.993Z,63.47
2022-12-02T03:44:08.443Z,60.30
2022-12-02T03:46:36.649Z,60.53
2022-12-02T03:49:05.265Z,62.67
2022-12-02T03:51:34.937Z,53.27
2022-12-02T03:54:03.215Z,63.20
2022-12-02T03:56:31.547Z,61.97
2022-12-02T03:58:59.706Z,61.30
2022-12-02T04:01:27.909Z,60.43
2022-12-02T04:03:56.075Z,57.70
2022-12-02T04:06:24.209Z,68.43
2022-12-02T04:08:53.708Z,64.77
2022-12-02T04:11:21.987Z,66.83
2022-12-02T04:13:50.149Z,66.70
2022-12-02T04:16:18.453Z,71.13
2022-12-02T04:18:46.643Z,71.07
2022-12-02T04:21:14.844Z,82.27
2022-12-02T04:23:43.114Z,69.83
2022-12-02T04:26:12.610Z,74.27
2022-12-02T04:28:40.770Z,69.80
2022-12-02T04:31:08.988Z,73.07
2022-12-02T04:33:37.326Z,74.40
2022-12-02T04:36:05.799Z,76.63
2022-12-02T04:38:33.965Z,78.43
2022-12-02T04:41:02.126Z,85.87
2022-12-02T04:43:31.682Z,78.70
2022-12-02T04:45:59.975Z,84.43
2022-12-02T04:48:28.222Z,82.27
2022-12-02T04:50:56.421Z,80.13
2022-12-02T04:53:24.566Z,74.23
2022-12-02T04:55:52.725Z,85.10
2022-12-02T04:58:20.883Z,80.87
2022-12-02T05:00:50.401Z,83.50
2022-12-02T05:03:18.624Z,82.60
2022-12-02T05:05:46.820Z,88.50
2022-12-02T05:08:15.069Z,84.10
2022-12-02T05:10:43.247Z,88.07
2022-12-02T05:13:11.410Z,88.67
2022-12-02T05:15:39.573Z,77.20
2022-12-02T05:18:09.154Z,86.20
2022-12-02T05:20:37.346Z,86.70
2022-12-02T05:23:05.564Z,84.30
2022-12-02T05:25:33.741Z,84.23
2022-12-02T05:28:01.962Z,78.50
2022-12-02T05:30:30.188Z,78.10
2022-12-02T05:32:58.342Z,82.63
2022-12-02T05:35:27.885Z,81.43
2022-12-02T05:37:59.054Z,72.07
2022-12-02T05:40:31.537Z,85.73
2022-12-02T05:42:59.905Z,82.30
2022-12-02T05:45:28.038Z,82.03
2022-12-02T05:47:56.522Z,71.70
2022-12-02T05:50:24.739Z,61.37
2022-12-02T05:52:54.282Z,59.57
2022-12-02T05:55:23.377Z,59.10
2022-12-02T05:57:51.861Z,53.70
2022-12-02T06:00:21.627Z,64.97
2022-12-02T06:02:51.435Z,55.10
2022-12-02T06:05:21.120Z,52.77
2022-12-02T06:07:50.091Z,47.43
2022-12-02T06:10:23.506Z,47.87
2022-12-02T06:12:52.381Z,47.57
2022-12-02T06:15:20.533Z,53.27
2022-12-02T06:17:49.096Z,50.90
2022-12-02T06:20:20.660Z,60.27
2022-12-02T06:22:48.843Z,50.30
2022-12-02T06:25:28.590Z,54.47
2022-12-02T06:27:59.496Z,47.37
2022-12-02T06:30:28.476Z,54.50
2022-12-02T06:32:57.604Z,51.87
2022-12-02T06:35:27.143Z,60.97
2022-12-02T06:37:57.500Z,55.73
2022-12-02T06:40:29.397Z,53.37
2022-12-02T06:42:58.459Z,60.13
2022-12-02T06:45:29.985Z,53.77
2022-12-02T06:48:07.061Z,59.07
2022-12-02T06:50:42.080Z,59.97
2022-12-02T06:53:37.884Z,54.50
2022-12-02T06:56:08.799Z,60.50
2022-12-02T06:58:39.073Z,57.80
2022-12-02T07:01:31.592Z,54.30
2022-12-02T07:04:04.882Z,64.10
2022-12-02T07:06:33.937Z,58.33
2022-12-02T07:09:03.316Z,62.17
2022-12-02T07:11:51.053Z,64.63
2022-12-02T07:14:22.484Z,62.77
2022-12-02T07:16:51.472Z,63.00
2022-12-02T07:19:21.120Z,63.03
2022-12-02T07:21:53.412Z,69.93
2022-12-02T07:24:23.683Z,62.07
2022-12-02T07:26:53.221Z,60.53
2022-12-02T07:29:28.370Z,67.80
2022-12-02T07:31:56.565Z,72.60
2022-12-02T07:34:28.254Z,73.13
2022-12-02T07:36:59.197Z,68.93
2022-12-02T07:39:27.338Z,77.30
2022-12-02T07:41:56.850Z,69.97
2022-12-02T07:44:25.052Z,66.50
2022-12-02T07:46:53.227Z,77.97
2022-12-02T07:49:21.452Z,77.53
2022-12-02T07:51:49.626Z,85.00
2022-12-02T07:54:17.789Z,88.53
2022-12-02T07:56:45.976Z,82.23
2022-12-02T07:59:15.502Z,78.60
2022-12-02T08:01:45.311Z,88.30
2022-12-02T08:04:13.605Z,79.17
2022-12-02T08:06:41.819Z,83.50
2022-12-02T08:09:10.475Z,82.60
2022-12-02T08:11:38.981Z,79.40
2022-12-02T08:14:07.306Z,78.57
2022-12-02T08:16:36.894Z,78.50
2022-12-02T08:19:05.505Z,75.33
2022-12-02T08:21:34.479Z,85.83
2022-12-02T08:24:03.451Z,93.33
2022-12-02T08:26:31.656Z,80.43
2022-12-02T08:28:59.929Z,84.37
2022-12-02T08:31:28.219Z,93.57
2022-12-02T08:34:00.198Z,82.60
2022-12-02T08:36:30.658Z,91.43
2022-12-02T08:38:58.828Z,84.40
2022-12-02T08:41:27.002Z,78.47
2022-12-02T08:43:55.185Z,84.93
2022-12-02T08:46:23.384Z,78.33
2022-12-02T08:48:51.613Z,80.47
2022-12-02T08:51:21.251Z,80.63
2022-12-02T08:53:49.421Z,84.73
2022-12-02T08:56:17.573Z,77.40
2022-12-02T08:58:45.912Z,90.20
2022-12-02T09:01:14.125Z,79.43
2022-12-02T09:03:42.380Z,84.83
2022-12-02T09:06:10.567Z,82.77
2022-12-02T09:08:40.126Z,83.20
2022-12-02T09:11:08.365Z,91.57
2022-12-02T09:13:36.648Z,84.10
2022-12-02T09:16:04.854Z,81.40
2022-12-02T09:18:33.124Z,88.90
2022-12-02T09:21:01.328Z,96.30
2022-12-02T09:23:30.325Z,94.93
2022-12-02T09:25:59.854Z,88.03
2022-12-02T09:28:28.044Z,89.50
2022-12-02T09:30:56.320Z,75.73
2022-12-02T09:33:26.928Z,71.50
2022-12-02T09:35:58.972Z,76.90
2022-12-02T09:38:31.107Z,75.73
2022-12-02T09:41:00.908Z,73.97
2022-12-02T09:43:29.706Z,81.57
2022-12-02T09:45:58.096Z,81.00
2022-12-02T09:48:27.089Z,78.83
2022-12-02T09:50:55.356Z,83.23
2022-12-02T09:53:23.578Z,79.03
2022-12-02T09:55:51.760Z,80.40
2022-12-02T09:58:22.656Z,72.07
2022-12-02T10:00:53.081Z,78.73
2022-12-02T10:03:24.395Z,69.80
2022-12-02T10:05:53.036Z,70.17
2022-12-02T10:08:23.501Z,66.37
2022-12-02T10:10:51.959Z,64.97
2022-12-02T10:13:21.931Z,64.30
2022-12-02T10:15:50.207Z,62.03
2022-12-02T10:18:19.444Z,64.03
2022-12-02T10:20:47.918Z,60.77
2022-12-02T10:23:16.802Z,67.57
2022-12-02T10:25:46.252Z,51.30
2022-12-02T10:28:26.377Z,59.23
2022-12-02T10:30:55.853Z,50.20
2022-12-02T10:33:25.649Z,62.20
2022-12-02T10:35:54.452Z,62.43
2022-12-02T10:38:32.779Z,62.37
2022-12-02T10:41:14.281Z,58.43
2022-12-02T10:43:44.931Z,62.00
2022-12-02T10:46:14.080Z,59.83
2022-12-02T10:48:42.282Z,56.73
2022-12-02T10:51:14.919Z,59.37
2022-12-02T10:53:43.488Z,62.87
2022-12-02T10:56:17.202Z,58.10
2022-12-02T10:58:47.537Z,57.90
2022-12-02T11:01:15.895Z,55.80
2022-12-02T11:03:44.107Z,53.13
2022-12-02T11:06:16.036Z,48.57
2022-12-02T11:08:44.382Z,49.30
2022-12-02T11:11:13.890Z,48.97
2022-12-02T11:13:56.669Z,45.07
2022-12-02T11:16:53.509Z,43.63
2022-12-02T11:19:40.821Z,46.20
2022-12-02T11:22:23.937Z,50.03
2022-12-02T11:24:52.343Z,45.73
2022-12-02T11:27:20.659Z,52.57
2022-12-02T11:30:07.710Z,46.17
2022-12-02T11:32:52.515Z,55.17
2022-12-02T11:35:40.714Z,53.90
2022-12-02T11:38:20.616Z,56.23
2022-12-02T11:41:03.651Z,56.10
2022-12-02T11:43:50.605Z,57.07
2022-12-02T11:46:20.085Z,66.63
2022-12-02T11:48:50.858Z,60.77
2022-12-02T11:51:30.482Z,63.20
2022-12-02T11:53:58.846Z,68.77
2022-12-02T11:56:29.003Z,64.60
2022-12-02T11:58:57.232Z,74.00
2022-12-02T12:01:25.397Z,71.23
2022-12-02T12:03:54.913Z,70.23
2022-12-02T12:06:23.651Z,73.63
2022-12-02T12:08:53.357Z,79.37
2022-12-02T12:11:25.926Z,91.87
2022-12-02T12:14:00.798Z,76.30
2022-12-02T12:16:32.332Z,85.53
2022-12-02T12:19:04.585Z,92.60
2022-12-02T12:21:42.397Z,91.73
2022-12-02T12:24:33.173Z,79.60
2022-12-02T12:27:12.001Z,89.30
2022-12-02T12:29:40.862Z,84.57
2022-12-02T12:32:09.920Z,82.97
2022-12-02T12:34:39.526Z,78.93
2022-12-02T12:37:07.675Z,88.87
2022-12-02T12:39:35.861Z,73.60
2022-12-02T12:42:04.012Z,61.20
2022-12-02T12:44:33.125Z,56.57
2022-12-02T12:47:02.553Z,54.53
2022-12-02T12:49:31.100Z,51.13
2022-12-02T12:52:00.665Z,54.97
2022-12-02T12:54:28.852Z,52.07
2022-12-02T12:56:57.205Z,49.90
2022-12-02T12:59:25.362Z,57.03
2022-12-02T13:01:53.629Z,52.87
2022-12-02T13:04:21.829Z,54.63
2022-12-02T13:06:50.246Z,59.27
2022-12-02T13:09:19.857Z,55.60
2022-12-02T13:11:48.041Z,52.73
2022-12-02T13:14:16.175Z,57.87
2022-12-02T13:16:44.393Z,53.83
2022-12-02T13:19:12.569Z,58.47
2022-12-02T13:21:40.714Z,54.07
2022-12-02T13:24:10.683Z,55.93
2022-12-02T13:26:40.195Z,51.47
2022-12-02T13:29:08.325Z,54.77
2022-12-02T13:31:36.630Z,53.67
2022-12-02T13:34:04.848Z,54.90
2022-12-02T13:36:33.008Z,60.13
2022-12-02T13:39:06.015Z,58.53
2022-12-02T13:41:34.900Z,56.13
2022-12-02T13:44:04.405Z,56.33
2022-12-02T13:46:32.742Z,51.67
2022-12-02T13:49:00.944Z,49.00
2022-12-02T13:51:29.113Z,49.43
2022-12-02T13:53:59.305Z,47.97
2022-12-02T13:56:27.894Z,42.67
2022-12-02T13:58:56.064Z,43.30
2022-12-02T14:01:25.642Z,46.17
2022-12-02T14:03:53.966Z,44.13
2022-12-02T14:06:22.252Z,52.80
2022-12-02T14:08:50.421Z,43.43
2022-12-02T14:11:21.627Z,50.53
2022-12-02T14:13:50.602Z,48.23
2022-12-02T14:16:18.902Z,45.33
2022-12-02T14:18:52.388Z,52.47
2022-12-02T14:21:23.762Z,50.10
2022-12-02T14:23:51.942Z,49.90
2022-12-02T14:26:20.128Z,50.03
2022-12-02T14:28:48.311Z,54.27
2022-12-02T14:31:23.817Z,52.93
2022-12-02T14:34:12.923Z,48.87
2022-12-02T14:36:41.882Z,51.57
2022-12-02T14:39:10.212Z,54.57
2022-12-02T14:41:38.430Z,46.03
2022-12-02T14:44:06.684Z,52.33
2022-12-02T14:46:34.903Z,50.37
2022-12-02T14:49:37.221Z,48.33
2022-12-02T14:51:52.563Z,52.53
2022-12-02T14:54:20.736Z,52.00
2022-12-02T14:56:48.893Z,53.90
2022-12-02T14:59:17.086Z,56.17
2022-12-02T15:01:45.343Z,54.37
2022-12-02T15:04:14.906Z,53.87
2022-12-02T15:06:44.506Z,55.27
2022-12-02T15:09:12.682Z,54.57
2022-12-02T15:11:41.008Z,54.23
2022-12-02T15:14:09.184Z,51.77
2022-12-02T15:16:37.439Z,52.77
2022-12-02T15:19:05.755Z,54.10
2022-12-02T15:21:35.289Z,51.00
2022-12-02T15:24:03.498Z,50.17
2022-12-02T15:26:31.646Z,49.50
2022-12-02T15:28:59.814Z,51.33
2022-12-02T15:31:28.080Z,49.87
2022-12-02T15:33:56.307Z,45.80
2022-12-02T15:36:24.446Z,48.27
2022-12-02T15:38:53.982Z,42.13
2022-12-02T15:41:22.136Z,46.50
2022-12-02T15:43:53.852Z,44.57
2022-12-02T15:46:23.831Z,44.13
2022-12-02T15:48:52.254Z,45.57
2022-12-02T15:51:21.050Z,43.27
2022-12-02T15:53:49.199Z,44.70
2022-12-02T15:56:18.946Z,48.23
2022-12-02T15:58:50.050Z,47.27
2022-12-02T16:01:18.291Z,45.00
2022-12-02T16:03:46.519Z,41.13
2022-12-02T16:06:14.684Z,43.70
2022-12-02T16:08:42.883Z,46.70
2022-12-02T16:11:11.803Z,48.30
2022-12-02T16:13:42.391Z,41.93
2022-12-02T16:16:10.745Z,44.87
2022-12-02T16:18:38.951Z,49.50
2022-12-02T16:21:07.232Z,47.93
2022-12-02T16:23:35.372Z,46.50
2022-12-02T16:26:03.541Z,47.73
2022-12-02T16:28:31.711Z,44.40
2022-12-02T16:31:01.247Z,44.27
2022-12-02T16:33:29.414Z,45.93
2022-12-02T16:35:57.574Z,45.23
2022-12-02T16:38:25.794Z,42.27
2022-12-02T16:40:54.614Z,52.40
2022-12-02T16:43:22.782Z,45.97
2022-12-02T16:45:51.051Z,53.77
2022-12-02T16:48:20.665Z,48.23
2022-12-02T16:50:55.356Z,44.97
2022-12-02T16:53:24.068Z,49.07
2022-12-02T16:55:52.242Z,51.07
2022-12-02T16:58:20.379Z,46.90
2022-12-02T17:00:48.809Z,41.70
2022-12-02T17:03:17.049Z,44.00
2022-12-02T17:05:46.609Z,47.50
2022-12-02T17:08:14.933Z,45.33
2022-12-02T17:10:43.296Z,42.07
2022-12-02T17:13:11.473Z,46.80
2022-12-02T17:15:39.612Z,43.07
2022-12-02T17:18:07.784Z,42.40
2022-12-02T17:20:35.927Z,45.23
2022-12-02T17:23:05.475Z,40.27
2022-12-02T17:25:33.674Z,40.83
2022-12-02T17:28:01.848Z,38.00
2022-12-02T17:30:30.059Z,37.90
2022-12-02T17:32:58.245Z,38.30
2022-12-02T17:35:26.455Z,43.13
2022-12-02T17:37:54.750Z,36.63
2022-12-02T17:40:24.274Z,37.03
2022-12-02T17:42:52.431Z,40.90
2022-12-02T17:45:20.618Z,39.03
2022-12-02T17:47:48.781Z,36.40
2022-12-02T17:50:17.166Z,33.90
2022-12-02T17:52:45.389Z,36.27
2022-12-02T17:55:14.426Z,36.73
2022-12-02T17:57:43.980Z,34.93
2022-12-02T18:00:12.769Z,34.13
2022-12-02T18:02:40.994Z,36.87
2022-12-02T18:05:09.576Z,32.53
2022-12-02T18:07:37.814Z,35.90
2022-12-02T18:10:06.663Z,30.33
2022-12-02T18:12:34.849Z,32.23
2022-12-02T18:15:04.390Z,36.23
2022-12-02T18:17:32.555Z,32.93
2022-12-02T18:20:00.761Z,32.73
2022-12-02T18:22:29.237Z,34.20
2022-12-02T18:24:58.457Z,29.37
2022-12-02T18:27:27.270Z,34.13
2022-12-02T18:29:55.682Z,33.17
2022-12-02T18:32:25.226Z,31.77
2022-12-02T18:34:53.755Z,30.93
2022-12-02T18:37:22.461Z,29.43
2022-12-02T18:39:50.754Z,29.13
2022-12-02T18:42:18.926Z,29.07
2022-12-02T18:44:47.118Z,30.90
2022-12-02T18:47:15.304Z,28.90
2022-12-02T18:49:44.864Z,29.00
2022-12-02T18:52:13.166Z,28.40
2022-12-02T18:54:41.347Z,28.63
2022-12-02T18:57:09.621Z,25.13
2022-12-02T18:59:37.821Z,26.50
2022-12-02T19:02:06.119Z,29.70
2022-12-02T19:04:34.315Z,24.83
2022-12-02T19:07:03.877Z,26.83
2022-12-02T19:09:32.037Z,27.27
2022-12-02T19:12:00.209Z,25.27
2022-12-02T19:14:28.409Z,26.83
2022-12-02T19:16:56.550Z,26.60
2022-12-02T19:19:24.714Z,26.67
2022-12-02T19:21:52.947Z,26.50
2022-12-02T19:24:22.466Z,27.20
2022-12-02T19:26:50.618Z,25.53
2022-12-02T19:29:18.791Z,26.37
2022-12-02T19:31:47.038Z,28.43
2022-12-02T19:34:15.211Z,26.03
2022-12-02T19:36:46.225Z,28.37
2022-12-02T19:39:14.372Z,27.37
2022-12-02T19:41:44.161Z,26.53
2022-12-02T19:44:12.364Z,23.13
2022-12-02T19:46:40.615Z,26.50
2022-12-02T19:49:08.934Z,28.00
2022-12-02T19:51:37.126Z,30.77
2022-12-02T19:54:05.374Z,29.97
2022-12-02T19:56:33.571Z,27.27
2022-12-02T19:59:03.131Z,32.17
2022-12-02T20:01:37.303Z,28.73
2022-12-02T20:04:25.642Z,28.77
2022-12-02T20:06:55.929Z,29.97
2022-12-02T20:09:26.039Z,29.33
2022-12-02T20:11:54.276Z,30.73
2022-12-02T20:14:23.809Z,31.37
2022-12-02T20:16:52.018Z,32.63
2022-12-02T20:19:20.194Z,32.10
2022-12-02T20:21:48.349Z,31.20
2022-12-02T20:24:16.503Z,32.77
2022-12-02T20:26:44.763Z,32.50
2022-12-02T20:29:12.926Z,32.53
2022-12-02T20:31:42.544Z,36.17
2022-12-02T20:34:10.810Z,36.33
2022-12-02T20:36:38.979Z,34.43
2022-12-02T20:39:07.406Z,32.87
2022-12-02T20:41:35.587Z,37.17
2022-12-02T20:44:03.768Z,36.17
2022-12-02T20:46:31.979Z,34.87
2022-12-02T20:49:01.509Z,33.30
2022-12-02T20:51:29.696Z,37.77
2022-12-02T20:53:57.881Z,32.33
2022-12-02T20:56:26.057Z,36.33
2022-12-02T20:58:54.204Z,36.93
2022-12-02T21:01:22.451Z,34.17
2022-12-02T21:03:50.679Z,33.77
2022-12-02T21:06:20.184Z,32.43
2022-12-02T21:08:50.087Z,34.80
2022-12-02T21:11:18.255Z,32.27
2022-12-02T21:13:46.585Z,32.63
2022-12-02T21:16:14.824Z,37.70
2022-12-02T21:18:43.052Z,30.30
2022-12-02T21:21:11.319Z,31.43
2022-12-02T21:23:40.871Z,30.30
2022-12-02T21:26:09.058Z,30.60
2022-12-02T21:28:37.267Z,30.47
2022-12-02T21:31:05.515Z,32.17
2022-12-02T21:33:33.713Z,30.00
2022-12-02T21:36:01.884Z,29.27
2022-12-02T21:38:30.716Z,27.63
2022-12-02T21:41:00.237Z,28.00
2022-12-02T21:43:28.411Z,31.10
2022-12-02T21:45:57.835Z,27.03
2022-12-02T21:48:26.044Z,29.03
2022-12-02T21:50:54.737Z,27.43
2022-12-02T21:53:22.919Z,29.90
2022-12-02T21:55:51.069Z,26.53
2022-12-02T21:58:20.586Z,28.60
2022-12-02T22:01:08.879Z,29.43
2022-12-02T22:03:37.098Z,27.03
2022-12-02T22:06:05.544Z,28.23
2022-12-02T22:08:33.712Z,30.47
2022-12-02T22:11:01.933Z,30.27
2022-12-02T22:13:31.467Z,27.73
2022-12-02T22:15:59.679Z,29.03
2022-12-02T22:18:27.862Z,31.67
2022-12-02T22:20:56.002Z,29.37
2022-12-02T22:23:24.183Z,31.30
2022-12-02T22:25:52.361Z,29.10
2022-12-02T22:28:20.510Z,30.40
2022-12-02T22:30:50.009Z,29.77
2022-12-02T22:33:18.218Z,30.10
2022-12-02T22:35:46.382Z,28.80
2022-12-02T22:38:14.582Z,32.50
2022-12-02T22:40:42.722Z,28.40
2022-12-02T22:43:10.899Z,29.90
2022-12-02T22:45:39.128Z,29.47
2022-12-02T22:48:08.766Z,34.47
2022-12-02T22:50:37.036Z,30.07
2022-12-02T22:53:05.305Z,27.53
2022-12-02T22:55:33.631Z,25.37
2022-12-02T22:58:01.800Z,28.83
2022-12-02T23:00:30.221Z,27.67
2022-12-02T23:02:58.443Z,31.00
2022-12-02T23:05:27.960Z,27.37
2022-12-02T23:07:56.177Z,30.67
2022-12-02T23:10:24.418Z,28.77
2022-12-02T23:12:52.563Z,28.73
2022-12-02T23:15:36.503Z,29.53
2022-12-02T23:18:05.706Z,30.13
2022-12-02T23:20:35.421Z,29.03
2022-12-02T23:23:03.649Z,28.73
2022-12-02T23:25:31.834Z,25.23
2022-12-02T23:28:00.036Z,27.97
2022-12-02T23:30:29.728Z,25.60
2022-12-02T23:32:58.200Z,29.43
2022-12-02T23:35:26.408Z,28.70
2022-12-02T23:37:56.018Z,27.03
2022-12-02T23:40:24.211Z,25.60
2022-12-02T23:42:52.382Z,25.33
2022-12-02T23:45:20.541Z,27.57
2022-12-02T23:47:48.921Z,22.23
2022-12-02T23:50:17.070Z,22.67
2022-12-02T23:52:45.241Z,22.80
2022-12-02T23:55:14.760Z,22.63
2022-12-02T23:57:43.094Z,24.40
